Time;durP1;ratioP1;P1;durP2;ratioP2;P2;SDS_P1;SDS_P2;PMS_P1;PMS_P2;Temp;Humidity;BMP_temperature;BMP_pressure;BME280_temperature;BME280_humidity;BME280_pressure;Samples;Min_cycle;Max_cycle;Signal;HPM_P1;HPM_P2
2020/12/18 00:01:51;;;;;;;23.52;12.48;;;;;;;5.87;97.51;101969.00;4796268;29;20481;-86
2020/12/18 00:04:37;;;;;;;30.77;12.27;;;;;;;5.72;97.24;101958.13;4792313;29;20066;-85
2020/12/18 00:07:08;;;;;;;27.10;13.30;;;;;;;5.80;97.43;101960.44;4777535;29;20050;-86
2020/12/18 00:09:40;;;;;;;24.23;13.10;;;;;;;5.73;97.02;101964.38;4778375;29;20084;-84
2020/12/18 00:12:22;;;;;;;28.10;13.40;;;;;;;5.74;97.85;101960.72;4752495;29;20059;-85
2020/12/18 00:15:11;;;;;;;21.10;13.23;;;;;;;5.71;97.41;101960.88;4805127;29;20493;-85
2020/12/18 00:17:56;;;;;;;24.00;13.20;;;;;;;5.69;97.59;101960.13;4794249;29;20125;-87
2020/12/18 00:20:33;;;;;;;19.67;12.88;;;;;;;5.66;98.08;101960.28;4801838;29;20404;-85
2020/12/18 00:23:04;;;;;;;28.10;14.90;;;;;;;5.67;97.77;101978.00;4783299;29;20051;-84
2020/12/18 00:25:30;;;;;;;23.20;14.90;;;;;;;5.71;97.98;101977.81;4791816;29;20520;-85
2020/12/18 00:31:05;;;;;;;23.38;13.32;;;;;;;5.62;98.11;101972.91;4729362;29;20078;-86
2020/12/18 00:33:42;;;;;;;25.63;13.73;;;;;;;5.58;98.14;101974.88;4777118;29;20085;-85
2020/12/18 00:36:18;;;;;;;30.50;14.27;;;;;;;5.59;97.94;101968.59;4797988;29;20043;-86
2020/12/18 00:38:47;;;;;;;25.55;15.02;;;;;;;5.56;98.15;101963.38;4793117;29;20548;-85
2020/12/18 00:44:11;;;;;;;31.17;15.68;;;;;;;5.55;98.44;101961.69;4786160;29;20039;-88
2020/12/18 00:50:14;;;;;;;;;;;;;;;;;;;;;
2020/12/18 00:52:54;;;;;;;27.52;15.23;;;;;;;5.45;98.19;101960.41;4771544;29;20457;-85
2020/12/18 00:55:58;;;;;;;32.90;17.33;;;;;;;5.48;98.83;101960.25;4769886;29;20078;-88
2020/12/18 00:58:58;;;;;;;26.40;14.93;;;;;;;5.48;98.64;101965.59;4792993;29;20042;-84
2020/12/18 01:01:39;;;;;;;31.75;16.27;;;;;;;5.50;98.52;101960.16;4776992;29;21116;-85
2020/12/18 01:04:26;;;;;;;29.77;16.70;;;;;;;5.52;98.84;101951.16;4733656;30;20052;-86
2020/12/18 01:06:57;;;;;;;32.88;17.40;;;;;;;5.50;98.31;101955.69;4788882;29;20051;-86
2020/12/18 01:09:23;;;;;;;32.78;17.40;;;;;;;5.49;98.66;101951.31;4783203;29;20465;-87
2020/12/18 01:11:53;;;;;;;28.75;15.30;;;;;;;5.51;98.98;101957.41;4794093;29;20038;-86
2020/12/18 01:14:21;;;;;;;35.03;18.42;;;;;;;5.50;99.12;101963.69;4782715;29;20047;-85
2020/12/18 01:17:50;;;;;;;29.95;17.17;;;;;;;5.53;99.00;101957.34;4762350;29;20034;-85
2020/12/18 01:20:16;;;;;;;30.23;17.25;;;;;;;5.53;98.93;101962.69;4773238;29;20130;-87
2020/12/18 01:22:57;;;;;;;28.48;16.58;;;;;;;5.49;98.94;101962.00;4801373;29;20130;-85
2020/12/18 01:25:37;;;;;;;33.80;16.92;;;;;;;5.48;98.67;101954.91;4799427;29;20504;-83
2020/12/18 01:28:26;;;;;;;33.67;16.65;;;;;;;5.53;98.92;101960.88;4783180;29;20145;-86
2020/12/18 01:31:03;;;;;;;32.17;18.20;;;;;;;5.54;99.59;101965.28;4767658;29;20497;-85
2020/12/18 01:33:40;;;;;;;31.42;17.50;;;;;;;5.57;99.43;101973.13;4792331;29;20043;-85
2020/12/18 01:36:15;;;;;;;29.05;17.48;;;;;;;5.57;98.91;101967.78;4781629;29;20038;-84
2020/12/18 01:38:43;;;;;;;35.70;17.38;;;;;;;5.53;99.03;101971.56;4795248;29;21899;-85
2020/12/18 01:41:29;;;;;;;28.75;15.80;;;;;;;5.49;98.68;101972.66;4767074;29;20125;-85
2020/12/18 01:43:57;;;;;;;29.73;15.60;;;;;;;5.52;98.66;101976.97;4792774;29;20051;-85
2020/12/18 01:46:28;;;;;;;27.05;16.77;;;;;;;5.52;98.52;101975.19;4803605;29;20043;-86
2020/12/18 01:48:56;;;;;;;31.58;16.98;;;;;;;5.52;99.19;101969.84;4787856;29;20463;-85
2020/12/18 01:55:14;;;;;;;27.83;16.10;;;;;;;5.44;99.53;101975.53;4788372;29;20141;-87
2020/12/18 01:58:01;;;;;;;25.20;16.40;;;;;;;5.43;99.22;101960.47;4791022;29;20038;-86
2020/12/18 02:01:08;;;;;;;36.40;17.05;;;;;;;5.41;98.98;101964.16;4780760;29;20054;-87
2020/12/18 02:03:41;;;;;;;32.15;16.75;;;;;;;5.34;99.68;101962.72;4694593;29;20061;-86
2020/12/18 02:06:21;;;;;;;32.15;16.42;;;;;;;5.34;99.50;101968.06;4765557;29;20034;-85
2020/12/18 02:08:58;;;;;;;36.63;16.42;;;;;;;5.36;99.48;101958.16;4779216;29;20057;-85
2020/12/18 02:11:30;;;;;;;33.95;16.88;;;;;;;5.32;99.23;101959.28;4779346;29;20052;-86
2020/12/18 02:13:58;;;;;;;40.83;18.73;;;;;;;5.33;99.22;101952.97;4772433;29;20051;-85
2020/12/18 02:16:31;;;;;;;31.25;16.95;;;;;;;5.34;98.98;101952.03;4790598;29;20048;-84
2020/12/18 02:19:41;;;;;;;;;;;;;;;;;;;;;
2020/12/18 02:22:19;;;;;;;37.88;16.98;;;;;;;5.31;99.34;101957.53;4811288;29;20035;-85
2020/12/18 02:25:07;;;;;;;31.05;15.85;;;;;;;5.35;99.67;101953.78;4788872;29;20455;-86
2020/12/18 02:27:51;;;;;;;35.88;16.30;;;;;;;5.33;99.47;101952.97;4750240;29;20070;-86
2020/12/18 02:30:46;;;;;;;30.40;16.13;;;;;;;5.29;99.55;101954.09;4783657;29;20047;-87
2020/12/18 02:33:24;;;;;;;33.83;16.27;;;;;;;5.30;99.74;101955.81;4770655;29;20038;-86
2020/12/18 02:35:58;;;;;;;29.17;16.60;;;;;;;5.26;99.47;101960.44;4775041;29;20134;-86
2020/12/18 02:38:26;;;;;;;34.65;18.20;;;;;;;5.26;99.79;101950.63;4757685;29;20042;-85
2020/12/18 02:40:58;;;;;;;31.85;16.92;;;;;;;5.28;99.90;101947.88;4778929;29;20042;-85
2020/12/18 02:43:40;;;;;;;38.15;18.95;;;;;;;5.27;99.76;101956.84;4794588;29;20125;-85
2020/12/18 02:50:05;;;;;;;31.50;16.52;;;;;;;5.26;100.00;101941.75;4738505;30;20476;-85
2020/12/18 02:52:36;;;;;;;;;;;;;;;5.30;100.00;101930.00;4692886;30;20131;-86
2020/12/18 02:55:20;;;;;;;36.28;15.57;;;;;;;5.28;100.00;101931.00;4733106;30;19926;-85
2020/12/18 02:58:05;;;;;;;;;;;;;;;;;;;;;
2020/12/18 03:00:38;;;;;;;32.92;17.52;;;;;;;5.26;99.92;101934.59;4756113;29;21065;-86
2020/12/18 03:03:27;;;;;;;36.80;16.80;;;;;;;5.28;99.98;101937.19;4794776;29;20060;-85
2020/12/18 03:06:07;;;;;;;34.65;15.38;;;;;;;5.26;99.77;101937.25;4771561;29;20408;-84
2020/12/18 03:08:51;;;;;;;30.80;15.88;;;;;;;5.25;100.00;101937.34;4763827;29;20108;-87
2020/12/18 03:11:53;;;;;;;38.00;17.10;;;;;;;5.26;99.94;101921.25;4754124;29;20069;-84
2020/12/18 03:14:55;;;;;;;32.40;17.00;;;;;;;5.23;99.83;101929.41;4788730;29;20046;-86
2020/12/18 03:17:45;;;;;;;;;;;;;;;;;;;;;
2020/12/18 03:20:14;;;;;;;37.42;17.38;;;;;;;5.17;99.76;101929.72;4771138;29;20049;-88
2020/12/18 03:23:12;;;;;;;44.00;17.95;;;;;;;5.17;99.75;101936.88;4795521;29;20199;-85
2020/12/18 03:25:52;;;;;;;35.53;17.73;;;;;;;5.22;100.00;101926.81;4791736;29;20047;-86
2020/12/18 03:28:30;;;;;;;34.00;16.88;;;;;;;5.18;100.00;101923.44;4774554;29;20043;-86
2020/12/18 03:31:23;;;;;;;35.75;16.50;;;;;;;5.15;100.00;101931.56;4774881;29;20110;-85
2020/12/18 03:34:04;;;;;;;;;;;;;;;;;;;;;
2020/12/18 03:36:33;;;;;;;31.58;16.20;;;;;;;5.10;99.96;101928.28;4781689;29;21352;-87
2020/12/18 03:39:02;;;;;;;41.63;17.55;;;;;;;5.15;100.00;101928.91;4779163;29;20038;-85
2020/12/18 03:41:34;;;;;;;33.22;16.50;;;;;;;5.14;100.00;101920.97;4795561;29;20496;-84
2020/12/18 03:44:00;;;;;;;38.63;18.05;;;;;;;5.19;99.83;101922.50;4782018;29;20505;-84
2020/12/18 03:46:52;;;;;;;39.63;18.98;;;;;;;5.19;100.00;101917.16;4766468;29;20126;-86
2020/12/18 03:49:32;;;;;;;44.95;17.08;;;;;;;5.21;99.81;101909.94;4777997;29;20047;-86
2020/12/18 03:52:23;;;;;;;39.17;17.15;;;;;;;5.26;100.00;101921.25;4804823;29;20532;-89
2020/12/18 03:54:53;;;;;;;41.40;17.05;;;;;;;5.25;100.00;101905.31;4750218;29;20035;-85
2020/12/18 03:57:52;;;;;;;38.72;17.27;;;;;;;5.20;100.00;101910.88;4789137;29;20050;-86
2020/12/18 04:00:21;;;;;;;35.78;17.10;;;;;;;5.26;99.71;101918.59;4795699;29;20051;-85
2020/12/18 04:02:46;;;;;;;36.87;16.93;;;;;;;5.26;100.00;101907.91;4779992;29;20137;-87
2020/12/18 04:05:43;;;;;;;33.90;15.55;;;;;;;5.26;99.89;101915.91;4782547;29;20137;-86
2020/12/18 04:08:10;;;;;;;34.28;15.57;;;;;;;5.20;99.90;101897.53;4779714;29;20129;-85
2020/12/18 04:10:38;;;;;;;32.38;14.77;;;;;;;5.28;100.00;101904.31;4758833;29;20047;-88
2020/12/18 04:13:11;;;;;;;30.67;14.80;;;;;;;5.30;99.61;101907.75;4763441;29;20042;-86
2020/12/18 04:15:45;;;;;;;27.73;14.93;;;;;;;5.23;100.00;101902.72;4793988;29;20383;-87
2020/12/18 04:18:25;;;;;;;29.95;15.52;;;;;;;5.26;99.68;101905.25;4770382;29;20043;-86
2020/12/18 04:20:53;;;;;;;32.00;16.08;;;;;;;5.22;100.00;101900.97;4776976;29;20039;-84
2020/12/18 04:23:35;;;;;;;30.90;15.30;;;;;;;5.22;99.83;101903.66;4788048;29;20071;-86
2020/12/18 04:26:05;;;;;;;30.45;14.95;;;;;;;5.22;99.90;101909.00;4803986;29;20079;-85
2020/12/18 04:28:48;;;;;;;28.00;12.65;;;;;;;5.29;99.87;101900.72;4777178;29;20099;-86
2020/12/18 04:31:25;;;;;;;26.85;13.25;;;;;;;5.20;99.72;101907.34;4770586;29;20144;-86
2020/12/18 04:33:52;;;;;;;35.40;13.55;;;;;;;5.18;99.72;101904.78;4788984;29;20065;-84
2020/12/18 04:36:55;;;;;;;33.38;14.23;;;;;;;5.20;99.50;101900.22;4770218;29;20046;-85
2020/12/18 04:39:21;;;;;;;33.05;14.30;;;;;;;5.20;99.61;101894.00;4787296;29;20080;-85
2020/12/18 04:41:54;;;;;;;31.85;13.63;;;;;;;5.24;99.79;101893.78;4767570;29;20057;-85
2020/12/18 04:44:25;;;;;;;28.23;13.90;;;;;;;5.24;99.60;101899.13;4767098;29;20072;-85
2020/12/18 04:46:52;;;;;;;25.50;12.75;;;;;;;5.30;100.00;101879.28;4786738;29;20051;-84
2020/12/18 04:49:56;;;;;;;;;;;;;;;;;;;;;
2020/12/18 04:52:30;;;;;;;27.00;13.77;;;;;;;5.33;99.82;101876.44;4766763;29;20061;-87
2020/12/18 04:55:24;;;;;;;30.75;14.00;;;;;;;5.34;100.00;101875.47;4734270;29;20075;-86
2020/12/18 04:58:16;;;;;;;31.00;13.63;;;;;;;5.40;99.73;101876.97;4718401;30;20138;-86
2020/12/18 05:01:00;;;;;;;29.08;11.20;;;;;;;5.43;99.99;101867.03;4736708;30;20048;-86
2020/12/18 05:03:36;;;;;;;29.60;12.23;;;;;;;5.41;99.88;101862.69;4749455;29;20043;-85
2020/12/18 05:09:44;;;;;;;29.35;12.90;;;;;;;5.48;99.58;101866.78;4754314;29;20473;-85
2020/12/18 05:12:15;;;;;;;23.40;11.82;;;;;;;5.48;99.60;101871.25;4753669;29;20071;-86
2020/12/18 05:14:53;;;;;;;24.42;11.98;;;;;;;5.55;99.95;101865.53;4757675;30;20082;-86
2020/12/18 05:17:37;;;;;;;;;;;;;;;;;;;;;
2020/12/18 05:20:15;;;;;;;23.95;10.90;;;;;;;5.69;99.28;101870.16;4766137;29;20035;-85
2020/12/18 05:23:04;;;;;;;26.15;12.05;;;;;;;5.72;99.68;101866.47;4764274;29;20059;-86
2020/12/18 05:25:39;;;;;;;36.30;11.73;;;;;;;5.70;99.11;101858.53;4783796;29;20050;-84
2020/12/18 05:28:22;;;;;;;23.50;11.82;;;;;;;5.71;99.26;101867.41;4793203;29;20054;-85
2020/12/18 05:30:58;;;;;;;20.80;10.50;;;;;;;5.69;99.30;101850.59;4765011;29;20056;-84
2020/12/18 05:33:40;;;;;;;;;;;;;;;;;;;;;
2020/12/18 05:39:05;;;;;;;27.30;10.70;;;;;;;5.73;99.15;101841.50;4796151;29;20043;-84
2020/12/18 05:41:39;;;;;;;24.52;11.48;;;;;;;5.76;99.34;101847.53;4792189;29;20495;-83
2020/12/18 05:44:38;;;;;;;23.83;11.38;;;;;;;5.81;99.03;101839.25;4792824;29;20043;-86
2020/12/18 05:47:43;;;;;;;28.38;11.88;;;;;;;5.90;98.85;101841.47;4774280;29;20042;-84
2020/12/18 05:50:30;;;;;;;21.30;10.02;;;;;;;5.93;99.20;101835.97;4786722;29;20062;-85
2020/12/18 05:53:20;;;;;;;24.75;9.63;;;;;;;5.93;98.03;101830.63;4787568;29;20042;-85
2020/12/18 05:55:47;;;;;;;20.20;9.73;;;;;;;5.94;98.42;101826.97;4778972;29;20129;-86
2020/12/18 05:58:19;;;;;;;24.45;10.55;;;;;;;5.95;98.81;101825.19;4768445;29;20042;-84
2020/12/18 06:00:51;;;;;;;23.35;9.88;;;;;;;5.93;98.70;101816.38;4768278;29;20072;-85
2020/12/18 06:03:22;;;;;;;26.52;9.63;;;;;;;6.01;98.15;101818.66;4775900;29;20121;-85
2020/12/18 06:06:08;;;;;;;28.95;11.18;;;;;;;6.00;98.03;101828.50;4800616;29;20533;-87
2020/12/18 06:08:44;;;;;;;25.85;10.38;;;;;;;6.00;98.33;101816.94;4747700;29;20141;-87
2020/12/18 06:12:01;;;;;;;26.63;10.30;;;;;;;6.00;98.36;101808.94;4767823;29;20117;-85
2020/12/18 06:14:27;;;;;;;28.35;10.98;;;;;;;5.97;98.21;101810.81;4790056;29;20050;-87
2020/12/18 06:17:01;;;;;;;26.40;11.65;;;;;;;5.96;98.31;101819.75;4777947;29;20191;-86
2020/12/18 06:19:40;;;;;;;16.52;9.10;;;;;;;5.96;98.30;101817.09;4746611;29;20524;-83
2020/12/18 06:22:33;;;;;;;30.27;10.85;;;;;;;5.92;98.20;101807.50;4771236;29;20148;-85
2020/12/18 06:25:13;;;;;;;26.80;10.23;;;;;;;5.93;98.44;101808.34;4777384;29;20096;-85
2020/12/18 06:27:41;;;;;;;31.80;11.73;;;;;;;5.94;98.01;101813.63;4801187;29;20039;-85
2020/12/18 06:30:32;;;;;;;19.00;9.82;;;;;;;5.99;98.42;101832.09;4783561;29;20077;-85
2020/12/18 06:33:08;;;;;;;;;;;;;;;;;;;;;
2020/12/18 06:35:40;;;;;;;22.15;8.70;;;;;;;5.90;98.19;101822.75;4780761;29;21019;-83
2020/12/18 06:38:30;;;;;;;27.30;10.25;;;;;;;5.91;98.24;101827.13;4757880;29;20129;-84
2020/12/18 06:41:05;;;;;;;18.42;8.52;;;;;;;5.92;98.25;101810.19;4771044;29;20055;-84
2020/12/18 06:43:37;;;;;;;26.35;9.63;;;;;;;5.91;97.86;101811.09;4754518;29;20121;-85
2020/12/18 06:46:04;;;;;;;21.50;9.75;;;;;;;5.89;97.99;101814.78;4772967;29;20047;-84
2020/12/18 06:48:54;;;;;;;21.30;9.57;;;;;;;5.87;97.88;101820.22;4771996;29;20414;-85
2020/12/18 06:51:33;;;;;;;17.48;9.60;;;;;;;5.82;98.42;101819.63;4767164;29;20051;-85
2020/12/18 06:54:22;;;;;;;19.63;8.50;;;;;;;5.83;98.35;101815.13;4775266;29;20057;-86
2020/12/18 06:57:26;;;;;;;18.05;8.70;;;;;;;5.83;98.04;101815.13;4759326;29;20409;-86
2020/12/18 07:04:31;;;;;;;17.13;8.23;;;;;;;5.83;98.08;101816.03;4786378;29;20101;-86
2020/12/18 07:07:22;;;;;;;13.38;7.53;;;;;;;5.83;98.26;101802.66;4741003;29;20466;-83
2020/12/18 07:09:58;;;;;;;16.65;8.25;;;;;;;5.84;97.72;101803.50;4797877;29;20047;-85
2020/12/18 07:12:33;;;;;;;19.10;7.40;;;;;;;5.83;97.88;101800.00;4754969;29;20054;-85
2020/12/18 07:15:13;;;;;;;19.23;8.18;;;;;;;5.87;98.29;101800.66;4755915;29;20089;-85
2020/12/18 07:18:04;;;;;;;17.90;8.02;;;;;;;5.88;97.94;101797.91;4768085;29;20050;-85
2020/12/18 07:20:37;;;;;;;15.00;7.50;;;;;;;5.87;97.53;101801.53;4744057;29;20486;-83
2020/12/18 07:23:03;;;;;;;19.02;7.90;;;;;;;5.86;97.95;101794.47;4772019;29;20049;-85
2020/12/18 07:26:07;;;;;;;16.75;7.05;;;;;;;5.91;97.64;101803.09;4758829;29;20050;-85
2020/12/18 07:28:39;;;;;;;14.82;6.85;;;;;;;5.93;97.46;101800.34;4788282;29;20046;-85
2020/12/18 07:31:33;;;;;;;16.90;6.57;;;;;;;5.88;97.70;101797.91;4751992;29;20428;-84
2020/12/18 07:34:08;;;;;;;15.27;8.10;;;;;;;5.84;97.39;101799.03;4785920;29;20042;-83
2020/12/18 07:37:01;;;;;;;14.77;7.10;;;;;;;5.88;97.66;101807.75;4759744;29;20047;-84
2020/12/18 07:39:33;;;;;;;14.82;7.53;;;;;;;5.99;97.49;101815.22;4790735;29;20039;-83
2020/12/18 07:45:28;;;;;;;17.92;7.38;;;;;;;6.14;97.39;101835.78;4718917;30;20468;-85
2020/12/18 07:47:59;;;;;;;22.25;7.85;;;;;;;6.20;97.17;101846.13;4717055;30;20051;-84
2020/12/18 07:50:50;;;;;;;17.08;6.95;;;;;;;6.21;96.98;101846.97;4742738;29;20612;-87
2020/12/18 07:53:37;;;;;;;14.48;7.88;;;;;;;6.21;96.75;101833.63;4768783;29;20054;-85
2020/12/18 07:56:11;;;;;;;12.57;8.10;;;;;;;6.24;97.37;101846.81;4777836;29;20545;-85
2020/12/18 07:59:00;;;;;;;15.48;8.13;;;;;;;6.26;97.35;101851.13;4778306;29;20047;-83
2020/12/18 08:01:48;;;;;;;15.23;9.05;;;;;;;6.27;97.18;101842.19;4727016;29;20042;-84
2020/12/18 08:05:09;;;;;;;;;;;;;;;;;;;;;
2020/12/18 08:08:09;;;;;;;15.38;8.55;;;;;;;6.34;96.97;101863.22;4782851;29;20389;-84
2020/12/18 08:10:40;;;;;;;;;;;;;;;6.36;96.96;101864.00;4784206;29;20053;-87
2020/12/18 08:13:16;;;;;;;15.63;9.48;;;;;;;6.39;96.63;101855.81;4731459;30;19929;-84
2020/12/18 08:15:47;;;;;;;19.33;10.35;;;;;;;6.46;96.44;101851.84;4736730;30;20127;-85
2020/12/18 08:18:57;;;;;;;23.30;11.73;;;;;;;6.47;96.17;101850.91;4718909;30;20104;-84
2020/12/18 08:21:55;;;;;;;21.13;11.52;;;;;;;6.52;96.36;101870.22;4695452;30;20052;-84
2020/12/18 08:28:08;;;;;;;19.45;10.68;;;;;;;6.58;96.21;101869.91;4689675;30;20045;-84
2020/12/18 08:30:44;;;;;;;19.58;12.18;;;;;;;6.59;96.86;101874.28;4703521;30;20526;-84
2020/12/18 08:33:40;;;;;;;22.23;12.43;;;;;;;6.60;96.21;101881.38;4701187;30;20124;-83
2020/12/18 08:36:14;;;;;;;20.63;11.55;;;;;;;6.69;96.38;101884.50;4731292;30;20044;-84
2020/12/18 08:38:42;;;;;;;21.48;11.27;;;;;;;6.70;95.60;101887.09;4694461;30;20053;-84
2020/12/18 08:41:31;;;;;;;20.48;11.32;;;;;;;6.70;96.78;101894.22;4680877;30;20189;-85
2020/12/18 08:47:31;;;;;;;16.10;10.85;;;;;;;6.78;96.62;101900.03;4757743;29;20075;-88
2020/12/18 08:50:22;;;;;;;;;;;;;;;;;;;;;
2020/12/18 08:52:54;;;;;;;18.83;11.82;;;;;;;6.78;95.77;101894.69;4731631;30;20911;-86
2020/12/18 08:55:51;;;;;;;18.13;11.43;;;;;;;6.82;95.89;101893.56;4745515;29;20047;-85
2020/12/18 08:59:00;;;;;;;18.40;11.15;;;;;;;6.84;95.76;101888.97;4716666;29;20059;-85
2020/12/18 09:01:54;;;;;;;22.52;11.40;;;;;;;6.89;96.06;101894.94;4736125;29;20067;-85
2020/12/18 09:08:13;;;;;;;19.80;10.95;;;;;;;6.90;95.71;101895.78;4786092;24;20058;-86
2020/12/18 09:10:44;;;;;;;22.73;11.80;;;;;;;6.91;96.03;101892.19;4804052;29;20052;-86
2020/12/18 09:14:05;;;;;;;;;;;;;;;;;;;;;
2020/12/18 09:16:51;;;;;;;;;;;;;;;;;;;;;
2020/12/18 09:19:43;;;;;;;19.85;10.73;;;;;;;7.04;95.27;101879.81;4780756;29;20046;-85
2020/12/18 09:26:13;;;;;;;20.75;10.95;;;;;;;7.20;94.11;101874.44;4774915;29;20066;-84
2020/12/18 09:32:24;;;;;;;16.50;12.50;;;;;;;7.29;94.26;101868.53;4757644;29;20552;-85
2020/12/18 09:35:29;;;;;;;17.95;11.95;;;;;;;7.36;94.54;101879.75;4738530;30;20540;-86
2020/12/18 09:38:22;;;;;;;19.55;11.32;;;;;;;7.39;93.53;101871.56;4740623;30;20040;-85
2020/12/18 09:41:21;;;;;;;20.38;11.30;;;;;;;7.41;93.08;101875.00;4764836;30;20163;-85
2020/12/18 09:44:31;;;;;;;21.10;11.45;;;;;;;7.47;92.90;101887.16;4758630;29;20043;-84
2020/12/18 09:47:22;;;;;;;22.60;10.50;;;;;;;7.49;93.11;101891.50;4694615;30;20052;-85
2020/12/18 09:56:53;;;;;;;15.37;9.67;;;;;;;7.52;93.06;101855.59;4715879;30;21278;-87
2020/12/18 09:59:21;;;;;;;21.00;9.90;;;;;;;7.51;92.60;101861.94;4686299;30;20528;-85
2020/12/18 10:02:34;;;;;;;15.67;9.93;;;;;;;7.49;92.54;101855.78;4672528;30;20543;-85
2020/12/18 10:05:21;;;;;;;21.40;10.52;;;;;;;7.51;92.94;101848.53;4693991;30;20055;-83
2020/12/18 10:07:57;;;;;;;16.67;9.93;;;;;;;7.48;92.93;101854.94;4730142;30;20175;-85
2020/12/18 10:10:47;;;;;;;17.23;10.27;;;;;;;7.54;92.38;101862.59;4726655;30;20063;-85
2020/12/18 10:13:31;;;;;;;16.67;9.98;;;;;;;7.51;92.45;101861.94;4716335;30;20537;-85
2020/12/18 10:16:49;;;;;;;;;;;;;;;;;;;;;
2020/12/18 10:20:05;;;;;;;15.43;8.90;;;;;;;7.66;92.44;101860.13;4675136;30;20132;-85
2020/12/18 10:22:49;;;;;;;17.30;9.18;;;;;;;7.66;92.36;101857.47;4706215;30;20048;-84
2020/12/18 10:25:26;;;;;;;15.75;9.13;;;;;;;7.70;92.19;101846.47;4714631;30;20052;-84
2020/12/18 10:27:58;;;;;;;16.60;9.40;;;;;;;7.79;92.25;101849.50;4704175;30;20152;-85
2020/12/18 10:30:42;;;;;;;15.93;8.15;;;;;;;7.84;91.70;101847.44;4713382;30;20326;-84
2020/12/18 10:33:13;;;;;;;12.70;8.13;;;;;;;7.88;91.63;101843.63;4715148;30;20047;-84
2020/12/18 10:46:10;;;;;;;11.43;7.78;;;;;;;8.17;90.81;101848.97;4759620;29;20484;-85
2020/12/18 10:48:36;;;;;;;13.20;8.07;;;;;;;8.20;90.26;101849.66;4784417;29;21623;-85
2020/12/18 10:51:04;;;;;;;14.57;7.95;;;;;;;8.19;90.38;101841.72;4776929;29;20045;-84
2020/12/18 10:53:38;;;;;;;15.30;8.02;;;;;;;8.22;90.56;101836.16;4758337;29;20082;-84
2020/12/18 10:56:23;;;;;;;12.88;7.22;;;;;;;8.23;90.59;101838.72;4774285;29;20121;-83
2020/12/18 10:58:51;;;;;;;13.20;7.95;;;;;;;8.29;90.40;101820.50;4789248;29;20107;-85
2020/12/18 11:01:28;;;;;;;12.43;7.47;;;;;;;8.35;89.94;101821.00;4761756;29;20047;-85
2020/12/18 11:04:14;;;;;;;12.20;7.10;;;;;;;8.38;89.88;101820.78;4777898;29;20050;-86
2020/12/18 11:06:49;;;;;;;15.77;6.85;;;;;;;8.37;89.95;101808.34;4761295;29;20136;-85
2020/12/18 11:09:47;;;;;;;12.82;5.90;;;;;;;8.44;89.81;101807.97;4770564;29;20062;-83
2020/12/18 11:12:47;;;;;;;14.50;7.32;;;;;;;8.52;89.56;101800.28;4771061;29;20046;-84
2020/12/18 11:15:53;;;;;;;12.63;6.07;;;;;;;8.65;89.12;101795.84;4757436;29;20047;-85
2020/12/18 11:18:29;;;;;;;11.32;5.80;;;;;;;8.77;88.29;101789.69;4740891;29;20120;-84
2020/12/18 11:21:31;;;;;;;15.65;5.97;;;;;;;8.79;88.51;101791.38;4735764;29;20069;-85
2020/12/18 11:24:15;;;;;;;11.05;5.95;;;;;;;8.87;88.81;101789.06;4724800;29;20134;-86
2020/12/18 11:27:04;;;;;;;;;;;;;;;;;;;;;
2020/12/18 11:29:37;;;;;;;10.77;5.63;;;;;;;9.00;87.96;101776.53;4773043;29;20964;-84
2020/12/18 11:32:19;;;;;;;11.10;5.78;;;;;;;8.87;88.54;101767.59;4776883;29;20070;-85
2020/12/18 11:35:00;;;;;;;12.75;6.53;;;;;;;8.92;88.58;101749.34;4753144;29;20053;-85
2020/12/18 11:37:39;;;;;;;11.07;6.15;;;;;;;9.00;88.41;101752.38;4760427;29;20050;-85
2020/12/18 11:41:07;;;;;;;13.07;6.22;;;;;;;8.99;88.08;101745.28;4757894;29;20079;-86
2020/12/18 11:44:08;;;;;;;14.52;5.43;;;;;;;8.97;88.48;101749.91;4786332;29;20200;-84
2020/12/18 11:47:09;;;;;;;13.98;6.75;;;;;;;9.05;87.95;101738.63;4751088;29;20094;-85
2020/12/18 11:49:42;;;;;;;20.05;6.82;;;;;;;9.08;87.89;101742.00;4735740;30;20490;-85
2020/12/18 11:52:54;;;;;;;12.98;6.15;;;;;;;9.08;88.20;101749.16;4742697;29;20075;-85
2020/12/18 11:55:42;;;;;;;14.13;6.15;;;;;;;9.16;87.92;101745.94;4753338;29;20843;-82
2020/12/18 11:58:13;;;;;;;15.27;6.50;;;;;;;9.19;88.20;101745.75;4786264;29;20043;-82
2020/12/18 12:00:52;;;;;;;;;;;;;;;;;;;;;
2020/12/18 12:03:17;;;;;;;11.48;5.10;;;;;;;9.12;87.48;101759.59;4773389;29;20040;-82
2020/12/18 12:05:55;;;;;;;13.43;6.35;;;;;;;9.17;86.97;101748.56;4763773;29;20231;-85
2020/12/18 12:08:24;;;;;;;14.60;6.47;;;;;;;9.09;87.42;101750.91;4734239;30;20066;-84
2020/12/18 12:10:58;;;;;;;13.45;6.40;;;;;;;9.10;87.46;101732.00;4739109;29;20426;-85
2020/12/18 12:13:30;;;;;;;13.85;6.00;;;;;;;9.03;87.79;101730.69;4747432;29;20059;-85
2020/12/18 12:16:06;;;;;;;11.95;6.30;;;;;;;9.14;87.67;101721.03;4767869;29;20055;-85
2020/12/18 12:18:44;;;;;;;11.68;5.88;;;;;;;9.13;87.45;101725.56;4763780;29;20055;-85
2020/12/18 12:22:00;;;;;;;12.90;6.13;;;;;;;9.18;87.15;101711.81;4764430;29;20043;-84
2020/12/18 12:24:56;;;;;;;10.77;5.85;;;;;;;9.22;87.23;101700.75;4756780;29;20547;-85
2020/12/18 12:27:36;;;;;;;16.15;5.53;;;;;;;9.22;87.25;101700.75;4779613;29;20073;-85
2020/12/18 12:30:12;;;;;;;12.77;4.82;;;;;;;9.28;86.15;101686.88;4778373;29;20051;-85
2020/12/18 12:33:03;;;;;;;11.43;5.50;;;;;;;9.35;86.42;101667.63;4781318;29;20039;-85
2020/12/18 12:35:41;;;;;;;11.38;5.07;;;;;;;9.38;85.43;101667.41;4770524;29;20944;-86
2020/12/18 12:38:10;;;;;;;11.68;5.80;;;;;;;9.35;86.46;101675.69;4750745;29;20042;-87
2020/12/18 12:40:55;;;;;;;14.32;5.28;;;;;;;9.41;85.48;101654.63;4770855;29;20062;-84
2020/12/18 12:43:23;;;;;;;12.25;5.10;;;;;;;9.43;85.10;101658.06;4760586;29;20043;-87
2020/12/18 12:46:04;;;;;;;11.60;5.20;;;;;;;9.39;85.70;101653.91;4771521;29;20043;-86
2020/12/18 12:48:34;;;;;;;13.10;5.43;;;;;;;9.51;85.38;101654.84;4696359;30;20109;-84
2020/12/18 12:51:08;;;;;;;11.95;5.53;;;;;;;9.44;85.13;101653.56;4737332;30;20055;-85
2020/12/18 12:53:59;;;;;;;11.82;4.80;;;;;;;9.43;85.30;101652.69;4767464;29;20050;-86
2020/12/18 12:56:33;;;;;;;13.13;5.05;;;;;;;9.43;85.23;101650.00;4757184;29;20049;-85
2020/12/18 12:59:00;;;;;;;16.13;4.50;;;;;;;9.48;85.07;101646.97;4779381;29;20114;-85
2020/12/18 13:01:26;;;;;;;11.40;4.50;;;;;;;9.51;84.35;101637.84;4775202;29;20070;-85
2020/12/18 13:04:03;;;;;;;8.13;4.20;;;;;;;9.56;84.52;101633.03;4783814;29;20443;-85
2020/12/18 13:06:45;;;;;;;11.00;4.18;;;;;;;9.58;84.64;101631.06;4774786;29;20051;-85
2020/12/18 13:09:11;;;;;;;9.40;4.00;;;;;;;9.61;84.23;101628.16;4773533;29;20059;-85
2020/12/18 13:11:37;;;;;;;10.38;4.53;;;;;;;9.53;84.43;101635.94;4797733;29;20104;-82
2020/12/18 13:14:12;;;;;;;11.10;4.43;;;;;;;9.56;84.52;101633.03;4752367;29;20060;-88
2020/12/18 13:16:40;;;;;;;9.60;4.10;;;;;;;9.53;84.56;101627.88;4774105;30;20051;-84
2020/12/18 13:19:05;;;;;;;11.02;4.25;;;;;;;9.50;84.46;101622.72;4783401;29;20443;-84
2020/12/18 13:21:32;;;;;;;10.73;4.25;;;;;;;9.49;84.26;101632.59;4768198;30;20047;-85
2020/12/18 13:23:59;;;;;;;8.90;4.13;;;;;;;9.41;84.80;101625.06;4760516;29;20067;-85
2020/12/18 13:26:25;;;;;;;9.23;3.78;;;;;;;9.43;84.56;101631.19;4783021;29;20035;-84
2020/12/18 13:28:50;;;;;;;9.45;4.20;;;;;;;9.40;84.83;101628.72;4762151;29;20095;-84
2020/12/18 13:31:19;;;;;;;6.18;3.63;;;;;;;9.35;84.85;101619.28;4769815;29;20060;-84
2020/12/18 13:33:45;;;;;;;13.02;4.47;;;;;;;9.37;84.49;101607.44;4759610;29;20054;-85
2020/12/18 13:36:19;;;;;;;10.50;4.35;;;;;;;9.37;84.63;101609.28;4782719;29;20108;-84
2020/12/18 13:38:50;;;;;;;9.93;4.32;;;;;;;9.36;84.80;101592.28;4783422;29;20202;-84
2020/12/18 13:41:17;;;;;;;11.45;4.22;;;;;;;9.35;84.85;101590.59;4774422;29;20137;-85
2020/12/18 13:43:42;;;;;;;12.15;4.25;;;;;;;9.38;84.50;101589.50;4777073;30;20047;-85
2020/12/18 13:46:08;;;;;;;9.23;4.60;;;;;;;9.39;84.32;101592.09;4781386;29;20050;-86
2020/12/18 13:48:35;;;;;;;9.10;4.57;;;;;;;9.33;84.41;101592.50;4766077;30;20387;-87
2020/12/18 13:51:01;;;;;;;10.05;3.75;;;;;;;9.36;84.25;101588.75;4757523;29;20047;-86
2020/12/18 13:53:26;;;;;;;8.27;4.22;;;;;;;9.40;84.08;101596.47;4774186;29;20067;-86